Time;durP1;ratioP1;P1;durP2;ratioP2;P2;SDS_P1;SDS_P2;PMS_P1;PMS_P2;Temp;Humidity;BMP_temperature;BMP_pressure;BME280_temperature;BME280_humidity;BME280_pressure;Samples;Min_cycle;Max_cycle;Signal;HPM_P1;HPM_P2
2022/12/17 13:06:53;;;;;;;75.70;44.42;;;0.90;82.30;;;;;;4931346;28;20136;-91
2022/12/17 13:09:22;;;;;;;74.90;45.63;;;0.70;82.50;;;;;;4926753;28;20063;-90
2022/12/17 13:12:03;;;;;;;77.45;44.97;;;0.80;82.50;;;;;;4938707;28;20087;-89
2022/12/17 13:14:49;;;;;;;80.60;45.38;;;0.70;82.40;;;;;;4947154;28;20482;-90
2022/12/17 13:17:15;;;;;;;87.95;46.25;;;0.70;82.40;;;;;;4939282;28;20035;-90
2022/12/17 13:20:01;;;;;;;81.25;46.22;;;0.70;82.60;;;;;;4941528;28;20055;-90
2022/12/17 13:22:32;;;;;;;80.75;45.92;;;0.70;82.70;;;;;;4937052;28;20495;-89
2022/12/17 13:25:18;;;;;;;81.00;47.72;;;0.60;82.60;;;;;;4937240;29;20044;-90
2022/12/17 13:27:45;;;;;;;89.47;48.22;;;0.60;82.80;;;;;;4922665;29;20039;-90
2022/12/17 13:30:17;;;;;;;87.70;46.75;;;0.60;83.00;;;;;;4941233;28;20118;-90
2022/12/17 13:33:01;;;;;;;88.10;48.47;;;0.50;83.00;;;;;;4947380;28;20067;-90
2022/12/17 13:35:53;;;;;;;91.68;49.38;;;0.50;83.20;;;;;;4945197;28;20124;-91
2022/12/17 13:38:30;;;;;;;92.75;47.90;;;0.40;83.20;;;;;;4946258;28;20043;-91
2022/12/17 13:41:10;;;;;;;94.30;49.45;;;0.40;83.20;;;;;;4941244;28;20463;-91
2022/12/17 13:43:44;;;;;;;95.90;49.58;;;0.40;83.30;;;;;;4939905;28;20044;-90
2022/12/17 13:46:27;;;;;;;86.53;46.50;;;0.30;83.40;;;;;;4942637;28;21510;-92
2022/12/17 13:49:05;;;;;;;94.65;49.65;;;0.40;83.60;;;;;;4934279;29;20027;-90
2022/12/17 13:51:33;;;;;;;93.07;50.17;;;0.20;83.70;;;;;;4933387;29;20471;-91
2022/12/17 13:54:03;;;;;;;91.47;47.38;;;0.10;83.70;;;;;;4939015;29;20065;-90
2022/12/17 13:56:34;;;;;;;94.43;50.28;;;0.00;83.80;;;;;;4937497;28;20046;-90
2022/12/17 13:59:03;;;;;;;99.38;50.72;;;0.00;83.90;;;;;;4941491;28;20067;-90
2022/12/17 14:01:35;;;;;;;94.55;51.38;;;-3276.70;84.00;;;;;;4959575;28;20038;-91
2022/12/17 14:04:01;;;;;;;94.93;49.50;;;-3276.70;84.20;;;;;;4971065;28;20051;-91
2022/12/17 14:06:34;;;;;;;106.50;52.85;;;-3276.60;84.40;;;;;;4967736;28;20020;-91
2022/12/17 14:09:01;;;;;;;95.72;50.90;;;-3276.50;84.40;;;;;;4951142;28;20060;-92
2022/12/17 14:14:24;;;;;;;105.88;51.50;;;-3276.30;84.80;;;;;;4948729;28;20079;-93
2022/12/17 14:16:50;;;;;;;104.32;53.85;;;-3276.30;85.10;;;;;;4954292;28;20031;-91
2022/12/17 14:19:16;;;;;;;106.18;55.35;;;-3276.30;85.10;;;;;;4951710;28;20032;-91
2022/12/17 14:21:42;;;;;;;105.47;53.20;;;-3276.20;85.20;;;;;;4943800;28;20707;-91
2022/12/17 14:24:12;;;;;;;99.35;49.45;;;-3276.20;85.20;;;;;;4930630;29;20051;-90
2022/12/17 14:26:55;;;;;;;101.47;49.97;;;-3276.10;85.20;;;;;;4932143;28;20035;-90
2022/12/17 14:29:23;;;;;;;96.60;47.78;;;-3276.10;85.20;;;;;;4944708;28;20054;-91
2022/12/17 14:31:54;;;;;;;94.95;48.25;;;-3276.00;85.30;;;;;;4941226;28;20097;-90
2022/12/17 14:34:24;;;;;;;95.88;48.60;;;-3276.00;85.40;;;;;;4947594;28;20024;-89
2022/12/17 14:36:58;;;;;;;91.20;47.20;;;-3275.90;85.60;;;;;;4948559;28;20051;-90
2022/12/17 14:39:29;;;;;;;98.07;50.40;;;-3275.80;85.80;;;;;;4936067;28;20043;-90
2022/12/17 14:42:25;;;;;;;101.63;49.78;;;-3275.80;85.90;;;;;;4948874;28;20044;-90
2022/12/17 14:44:59;;;;;;;101.18;51.30;;;-3275.80;85.90;;;;;;4933518;28;20046;-90
2022/12/17 14:47:28;;;;;;;93.25;50.05;;;-3275.70;86.00;;;;;;4924692;28;21029;-90
2022/12/17 14:50:06;;;;;;;96.82;50.65;;;-3275.70;86.20;;;;;;4918897;28;20090;-89
2022/12/17 14:52:40;;;;;;;90.55;45.88;;;-3275.60;86.10;;;;;;4930414;29;20043;-90
2022/12/17 14:55:23;;;;;;;95.23;48.73;;;-3275.60;86.20;;;;;;4943768;29;20047;-91
2022/12/17 14:57:50;;;;;;;98.75;49.30;;;-3275.50;86.30;;;;;;4947203;29;20401;-89
2022/12/17 15:00:17;;;;;;;90.55;47.38;;;-3275.50;86.40;;;;;;4949403;29;20660;-90
2022/12/17 15:02:45;;;;;;;99.10;47.22;;;-3275.40;86.70;;;;;;4960760;28;20092;-89
2022/12/17 15:05:15;;;;;;;99.47;48.83;;;-3275.30;86.90;;;;;;4947091;29;20043;-90
2022/12/17 15:07:41;;;;;;;97.80;48.00;;;-3275.20;87.10;;;;;;4944950;29;20337;-89
2022/12/17 15:10:13;;;;;;;100.00;48.88;;;-3275.20;87.30;;;;;;4949087;29;20123;-89
2022/12/17 15:12:43;;;;;;;106.65;49.10;;;-3275.20;87.50;;;;;;4948614;29;20036;-91
2022/12/17 15:15:21;;;;;;;108.82;52.75;;;-3275.10;87.60;;;;;;4941120;29;20035;-93
2022/12/17 15:17:50;;;;;;;108.78;52.08;;;-3275.00;87.80;;;;;;4943097;28;20024;-92
2022/12/17 15:20:20;;;;;;;110.07;51.70;;;-3275.00;88.00;;;;;;4938882;28;20027;-93
2022/12/17 15:22:47;;;;;;;113.22;55.38;;;-3275.00;88.30;;;;;;4949060;29;20043;-92
2022/12/17 15:25:15;;;;;;;120.03;54.75;;;-3275.00;88.40;;;;;;4914218;28;20050;-91
2022/12/17 15:27:49;;;;;;;118.07;55.78;;;-3275.00;88.50;;;;;;4927557;29;20054;-92
2022/12/17 15:30:16;;;;;;;138.13;61.00;;;-3275.00;88.60;;;;;;4936711;28;20604;-92
2022/12/17 15:32:43;;;;;;;139.43;68.70;;;-3275.00;88.70;;;;;;4937132;29;21569;-91
2022/12/17 15:35:58;;;;;;;154.30;72.28;;;-3275.00;88.80;;;;;;4939033;28;20035;-92
2022/12/17 15:38:24;;;;;;;151.73;70.03;;;-3275.00;88.70;;;;;;4942825;28;20126;-91
2022/12/17 15:40:58;;;;;;;149.98;63.47;;;-3275.00;88.80;;;;;;4932539;29;20126;-91
2022/12/17 15:43:39;;;;;;;137.97;56.60;;;-3275.00;88.90;;;;;;4946057;28;20046;-91
2022/12/17 15:46:13;;;;;;;132.13;53.78;;;-3275.00;88.90;;;;;;4936952;28;20291;-91
2022/12/17 15:48:44;;;;;;;145.23;56.08;;;-3275.00;89.00;;;;;;4926471;29;20039;-91
2022/12/17 15:51:13;;;;;;;134.40;55.03;;;-3275.10;89.00;;;;;;4922982;28;20027;-91
2022/12/17 15:53:48;;;;;;;130.15;55.78;;;-3275.00;89.00;;;;;;4941580;28;20043;-91
2022/12/17 15:56:40;;;;;;;131.50;54.35;;;-3275.00;89.10;;;;;;4911921;28;20035;-91
2022/12/17 15:59:08;;;;;;;127.57;53.53;;;-3275.00;89.20;;;;;;4927255;28;20036;-91
2022/12/17 16:01:37;;;;;;;123.55;53.30;;;-3275.00;89.40;;;;;;4935220;28;20032;-91
2022/12/17 16:04:15;;;;;;;134.25;54.63;;;-3275.00;89.60;;;;;;4918174;29;20043;-90
2022/12/17 16:06:41;;;;;;;127.22;52.35;;;-3274.90;89.60;;;;;;4941653;28;20041;-90
2022/12/17 16:09:25;;;;;;;119.47;51.42;;;-3274.90;89.70;;;;;;4938532;28;20036;-91
2022/12/17 16:11:56;;;;;;;111.28;48.40;;;-3274.90;89.80;;;;;;4940489;29;20048;-90
2022/12/17 16:14:23;;;;;;;131.80;52.83;;;-3274.90;90.00;;;;;;4931457;28;20019;-89
2022/12/17 16:16:51;;;;;;;122.60;52.03;;;-3274.90;89.90;;;;;;4943309;29;20035;-89
2022/12/17 16:19:17;;;;;;;121.65;51.08;;;-3274.90;89.90;;;;;;4946405;28;20040;-89
2022/12/17 16:21:43;;;;;;;118.28;50.88;;;-3274.80;90.00;;;;;;4936217;29;20036;-89
2022/12/17 16:24:10;;;;;;;123.13;54.65;;;-3274.80;90.10;;;;;;4938226;29;20056;-91
2022/12/17 16:26:36;;;;;;;126.53;52.40;;;-3274.90;90.20;;;;;;4952808;28;20106;-91
2022/12/17 16:29:03;;;;;;;129.50;53.75;;;-3274.90;90.20;;;;;;4930910;29;20482;-90
2022/12/17 16:31:29;;;;;;;120.57;53.90;;;-3274.90;90.20;;;;;;4934184;29;20039;-90
2022/12/17 16:33:54;;;;;;;123.38;55.22;;;-3274.90;90.20;;;;;;4930546;29;20040;-91
2022/12/17 16:36:24;;;;;;;122.22;51.92;;;-3275.00;90.20;;;;;;4919498;28;20039;-91
2022/12/17 16:38:53;;;;;;;120.82;52.33;;;-3274.90;90.10;;;;;;4928293;29;20831;-88
2022/12/17 16:41:31;;;;;;;;;;;;;;;;;;;;;
2022/12/17 16:44:16;;;;;;;;;;;;;;;;;;;;;
2022/12/17 16:46:47;;;;;;;121.05;54.63;;;-3275.00;90.10;;;;;;4931480;28;20242;-92
2022/12/17 16:49:21;;;;;;;135.02;54.30;;;-3274.90;90.10;;;;;;4911899;28;20034;-91
2022/12/17 16:51:54;;;;;;;132.38;56.15;;;-3274.90;90.20;;;;;;4906993;29;20471;-90
2022/12/17 16:54:26;;;;;;;120.88;52.67;;;-3274.90;90.20;;;;;;4917345;29;20126;-92
2022/12/17 16:56:54;;;;;;;129.57;55.60;;;-3274.90;90.30;;;;;;4925519;29;20546;-91
2022/12/17 16:59:20;;;;;;;133.32;57.83;;;-3274.90;90.30;;;;;;4907608;28;20500;-92
2022/12/17 17:01:48;;;;;;;137.00;58.08;;;-3274.90;90.30;;;;;;4916679;29;20047;-92
2022/12/17 17:04:27;;;;;;;138.65;59.28;;;-3275.00;90.30;;;;;;4910151;28;20074;-90
2022/12/17 17:06:56;;;;;;;121.93;54.50;;;-3274.90;90.30;;;;;;4923239;29;20036;-91
2022/12/17 17:09:35;;;;;;;;;;;;;;;;;;;;;
2022/12/17 17:12:14;;;;;;;;;;;;;;;;;;;;;
2022/12/17 17:14:43;;;;;;;123.00;55.05;;;-3275.00;90.40;;;;;;4929031;29;20107;-92
2022/12/17 17:17:18;;;;;;;129.27;56.22;;;-3275.00;90.40;;;;;;4923784;28;20071;-92
2022/12/17 17:19:49;;;;;;;125.70;53.28;;;-3275.00;90.40;;;;;;4923472;28;20052;-91
2022/12/17 17:22:22;;;;;;;128.48;56.67;;;-3275.00;90.40;;;;;;4902219;28;20062;-92
2022/12/17 17:25:15;;;;;;;120.43;55.90;;;-3275.00;90.40;;;;;;4919947;29;20070;-93
2022/12/17 17:28:13;;;;;;;;;;;;;;;;;;;;;
2022/12/17 17:30:42;;;;;;;129.40;54.45;;;-3274.90;90.30;;;;;;4927525;28;21349;-92
2022/12/17 17:33:08;;;;;;;114.38;55.80;;;-3275.00;90.30;;;;;;4937915;29;20063;-92
2022/12/17 17:35:33;;;;;;;119.32;54.78;;;-3274.90;90.40;;;;;;4976002;23;20431;-80
2022/12/17 17:37:59;;;;;;;119.63;55.28;;;-3275.00;90.40;;;;;;4958940;28;20370;-79
2022/12/17 17:40:25;;;;;;;118.35;55.35;;;-3275.00;90.40;;;;;;4958540;28;20042;-79
2022/12/17 17:42:51;;;;;;;116.90;55.20;;;-3275.00;90.40;;;;;;4957375;28;20474;-80
2022/12/17 17:45:16;;;;;;;112.80;54.40;;;-3275.00;90.40;;;;;;4956532;28;20091;-81
2022/12/17 17:47:42;;;;;;;123.40;55.47;;;-3275.00;90.40;;;;;;4957055;28;20488;-80
2022/12/17 17:50:08;;;;;;;124.45;54.20;;;-3275.00;90.30;;;;;;4962406;28;20117;-79
2022/12/17 17:52:34;;;;;;;117.28;53.40;;;-3275.00;90.40;;;;;;4971280;28;21235;-79
2022/12/17 17:55:00;;;;;;;119.22;53.35;;;-3275.00;90.30;;;;;;4973314;28;20121;-79
2022/12/17 17:57:25;;;;;;;111.63;52.55;;;-3275.00;90.40;;;;;;4971785;28;20046;-80
2022/12/17 17:59:51;;;;;;;124.43;55.38;;;-3275.00;90.40;;;;;;4970269;28;20486;-79
2022/12/17 18:02:16;;;;;;;111.05;51.90;;;-3275.10;90.30;;;;;;4969180;28;20042;-80
2022/12/17 18:04:42;;;;;;;124.93;54.33;;;-3275.10;90.30;;;;;;4970502;28;20105;-80
2022/12/17 18:07:08;;;;;;;122.35;54.25;;;-3275.10;90.30;;;;;;4971515;28;20031;-79
2022/12/17 18:09:34;;;;;;;129.32;55.28;;;-3275.00;90.30;;;;;;4974905;28;20065;-79
2022/12/17 18:13:53;;;;;;;127.88;54.08;;;-3275.10;90.30;;;;;;4971546;28;20051;-80
2022/12/17 18:14:47;;;;;;;122.47;53.47;;;-3275.00;90.20;;;;;;4972799;28;20042;-80
2022/12/17 18:17:13;;;;;;;128.30;53.85;;;-3275.10;90.30;;;;;;4961819;28;20043;-80
2022/12/17 18:19:38;;;;;;;139.10;59.50;;;-3275.10;90.30;;;;;;4949809;28;20038;-79
2022/12/17 18:22:05;;;;;;;142.40;57.40;;;-3275.00;90.40;;;;;;4949279;28;20155;-78
2022/12/17 18:24:34;;;;;;;132.32;54.13;;;-3275.00;90.40;;;;;;4986709;28;20046;-80
2022/12/17 18:26:59;;;;;;;137.30;58.72;;;-3275.00;90.70;;;;;;4965871;28;20034;-79
2022/12/17 18:29:27;;;;;;;141.38;59.70;;;-3275.00;90.70;;;;;;4967360;28;20042;-79
2022/12/17 18:31:53;;;;;;;150.23;58.72;;;-3275.00;90.80;;;;;;4972530;28;20142;-80
2022/12/17 18:34:21;;;;;;;130.38;58.70;;;-3275.00;90.90;;;;;;4967453;28;20671;-80
2022/12/17 18:36:48;;;;;;;132.90;60.70;;;-3275.00;90.90;;;;;;4987915;28;20489;-81
2022/12/17 18:39:19;;;;;;;131.98;57.80;;;-3275.00;90.80;;;;;;4994533;28;20038;-79
2022/12/17 18:44:33;;;;;;;149.75;62.70;;;-3275.00;90.90;;;;;;5008941;28;20107;-80
2022/12/17 18:46:59;;;;;;;146.15;64.50;;;-3275.00;90.90;;;;;;5004279;28;20119;-80
2022/12/17 18:49:25;;;;;;;141.43;58.58;;;-3275.00;91.00;;;;;;5004247;28;20440;-79
2022/12/17 18:51:52;;;;;;;149.68;60.60;;;-3275.00;90.90;;;;;;5013279;28;20025;-80
2022/12/17 18:54:23;;;;;;;139.73;58.33;;;-3275.00;91.00;;;;;;5012531;28;20051;-79
2022/12/17 18:56:50;;;;;;;141.40;58.03;;;-3275.00;91.10;;;;;;5012561;28;20064;-80
2022/12/17 18:59:18;;;;;;;144.50;61.78;;;-3275.00;91.00;;;;;;5012779;28;20087;-79
2022/12/17 19:01:44;;;;;;;125.30;55.15;;;-3275.00;91.10;;;;;;5014045;28;20030;-79
2022/12/17 19:04:13;;;;;;;136.48;61.25;;;-3275.00;91.10;;;;;;5012506;28;20153;-80
2022/12/17 19:06:40;;;;;;;125.57;58.08;;;-3275.00;91.10;;;;;;5016348;28;20493;-80
2022/12/17 19:09:07;;;;;;;134.05;56.65;;;-3275.00;91.10;;;;;;5015639;28;20025;-80
2022/12/17 19:11:34;;;;;;;129.75;56.70;;;-3275.00;91.20;;;;;;5021197;28;20029;-80
2022/12/17 19:14:00;;;;;;;116.45;53.58;;;-3275.00;91.20;;;;;;5022793;28;20046;-82
2022/12/17 19:16:28;;;;;;;118.60;52.38;;;-3274.80;91.10;;;;;;5025991;28;20067;-79
2022/12/17 19:18:58;;;;;;;121.47;55.75;;;-3274.80;91.20;;;;;;5027579;28;20449;-83
2022/12/17 19:21:24;;;;;;;114.32;52.05;;;-3274.80;91.20;;;;;;5031662;28;20037;-84
2022/12/17 19:23:58;;;;;;;116.32;52.05;;;-3274.80;91.30;;;;;;5022064;28;20050;-79
2022/12/17 19:26:24;;;;;;;115.18;52.17;;;-3274.80;91.30;;;;;;5020293;28;20034;-78
2022/12/17 19:28:52;;;;;;;106.50;51.30;;;-3274.80;91.20;;;;;;5019208;28;20492;-80
2022/12/17 19:31:20;;;;;;;112.78;50.53;;;-3274.70;91.20;;;;;;5017397;28;20062;-80
2022/12/17 19:33:46;;;;;;;113.60;52.08;;;-3274.70;91.30;;;;;;5011289;28;20030;-78
2022/12/17 19:36:17;;;;;;;112.78;50.95;;;-3274.70;91.40;;;;;;5012311;28;20072;-79
2022/12/17 19:38:44;;;;;;;111.00;49.63;;;-3274.70;91.40;;;;;;5016155;28;20051;-80
2022/12/17 19:41:15;;;;;;;119.38;53.25;;;-3274.70;91.40;;;;;;5020798;28;20034;-80
2022/12/17 19:43:42;;;;;;;108.18;52.45;;;-3274.70;91.50;;;;;;5010899;28;20042;-80
2022/12/17 19:46:10;;;;;;;104.20;49.55;;;-3274.70;91.50;;;;;;5022915;28;20033;-80
2022/12/17 19:48:36;;;;;;;104.45;48.70;;;-3274.70;91.50;;;;;;5021302;28;20033;-80
2022/12/17 19:51:04;;;;;;;103.65;50.53;;;-3274.70;91.50;;;;;;5019815;28;20112;-79
2022/12/17 19:53:30;;;;;;;96.53;48.13;;;-3274.70;91.60;;;;;;5017695;28;20033;-79
2022/12/17 19:56:10;;;;;;;102.40;50.03;;;-3274.70;91.60;;;;;;5019050;28;20865;-79
2022/12/17 19:58:36;;;;;;;106.25;50.42;;;-3274.70;91.60;;;;;;5015863;28;20068;-80
2022/12/17 20:01:10;;;;;;;101.28;48.53;;;-3274.70;91.60;;;;;;5017303;28;20108;-80
2022/12/17 20:03:36;;;;;;;111.28;54.08;;;-3274.80;91.60;;;;;;5018269;28;20018;-80
2022/12/17 20:06:03;;;;;;;102.55;52.17;;;-3274.80;91.60;;;;;;5021585;28;20037;-80
2022/12/17 20:08:29;;;;;;;94.00;47.03;;;-3274.70;91.50;;;;;;5020884;28;20041;-79
2022/12/17 20:10:55;;;;;;;101.70;50.60;;;-3274.70;91.50;;;;;;5020825;28;20045;-80
2022/12/17 20:13:21;;;;;;;90.25;47.05;;;-3274.80;91.50;;;;;;5010976;28;20041;-80
2022/12/17 20:15:46;;;;;;;104.60;50.58;;;-3274.70;91.40;;;;;;5022433;28;20041;-80
2022/12/17 20:18:12;;;;;;;99.32;46.67;;;-3274.70;91.50;;;;;;5018990;28;20033;-80
2022/12/17 20:20:38;;;;;;;88.28;44.83;;;-3274.70;91.60;;;;;;5021288;28;20052;-79
2022/12/17 20:23:03;;;;;;;94.68;46.95;;;-3274.70;91.40;;;;;;5015679;28;20037;-79
2022/12/17 20:25:29;;;;;;;99.97;48.97;;;-3274.70;91.50;;;;;;5019744;28;20546;-80
2022/12/17 20:27:55;;;;;;;93.85;47.15;;;-3274.70;91.50;;;;;;5017931;28;20087;-79
2022/12/17 20:30:21;;;;;;;88.88;48.50;;;-3274.70;91.50;;;;;;5016794;28;20102;-82
2022/12/17 20:32:46;;;;;;;89.13;44.60;;;-3274.70;91.50;;;;;;5013618;28;20034;-82
2022/12/17 20:35:12;;;;;;;91.82;45.40;;;-3274.70;91.50;;;;;;5013838;28;20057;-79
2022/12/17 20:37:38;;;;;;;87.50;45.85;;;-3274.70;91.60;;;;;;5020188;28;20022;-79
2022/12/17 20:40:05;;;;;;;89.38;46.72;;;-3274.80;91.60;;;;;;5013195;28;20037;-80
2022/12/17 20:42:30;;;;;;;88.45;46.03;;;-3274.70;91.50;;;;;;5026951;28;20041;-80
2022/12/17 20:44:56;;;;;;;89.97;47.70;;;-3274.70;91.50;;;;;;5026324;28;20048;-79
2022/12/17 20:47:22;;;;;;;92.68;47.95;;;-3274.70;91.50;;;;;;5027619;28;20156;-79
2022/12/17 20:49:47;;;;;;;91.05;48.58;;;-3274.80;91.50;;;;;;5022377;28;20038;-80
2022/12/17 20:52:13;;;;;;;96.35;50.33;;;-3274.70;91.50;;;;;;5020684;28;20038;-79
2022/12/17 20:54:38;;;;;;;91.43;47.83;;;-3274.70;91.40;;;;;;5016195;28;20485;-79
2022/12/17 20:57:04;;;;;;;94.25;48.33;;;-3274.70;91.50;;;;;;5022006;28;20111;-80
2022/12/17 20:59:33;;;;;;;91.57;49.00;;;-3274.70;91.50;;;;;;5014048;28;20074;-80
2022/12/17 21:01:58;;;;;;;94.97;48.88;;;-3274.70;91.40;;;;;;5018842;28;20034;-79
2022/12/17 21:04:24;;;;;;;95.47;49.63;;;-3274.60;91.50;;;;;;5014385;28;20054;-79
2022/12/17 21:06:50;;;;;;;96.88;47.75;;;-3274.70;91.50;;;;;;5015526;28;20125;-80
2022/12/17 21:09:18;;;;;;;100.32;50.63;;;-3274.70;91.50;;;;;;5016222;28;21123;-80
2022/12/17 21:11:44;;;;;;;102.47;49.80;;;-3274.70;91.50;;;;;;5019124;28;20025;-79
2022/12/17 21:14:13;;;;;;;94.65;49.95;;;-3274.60;91.50;;;;;;5013962;28;20041;-80
2022/12/17 21:16:40;;;;;;;98.68;49.45;;;-3274.60;91.50;;;;;;5016622;28;20400;-79
2022/12/17 21:19:07;;;;;;;97.18;47.10;;;-3274.60;91.40;;;;;;5013355;28;20033;-80
2022/12/17 21:21:36;;;;;;;95.65;49.42;;;-3274.60;91.50;;;;;;5013584;28;20037;-80
2022/12/17 21:24:02;;;;;;;104.40;51.47;;;-3274.60;91.50;;;;;;5011981;28;20042;-79
2022/12/17 21:26:30;;;;;;;96.57;50.33;;;-3274.60;91.50;;;;;;5014218;28;20492;-80
2022/12/17 21:28:56;;;;;;;95.07;48.88;;;-3274.60;91.40;;;;;;5012007;28;20482;-80
2022/12/17 21:31:23;;;;;;;100.03;51.72;;;-3274.60;91.50;;;;;;5010988;28;20038;-80
2022/12/17 21:33:51;;;;;;;94.78;50.17;;;-3274.60;91.60;;;;;;5015710;28;20030;-79
2022/12/17 21:36:19;;;;;;;103.18;51.47;;;-3274.60;91.60;;;;;;5011273;28;20381;-80
2022/12/17 21:38:45;;;;;;;97.43;51.78;;;-3274.50;91.60;;;;;;5015476;28;20034;-79
2022/12/17 21:41:16;;;;;;;98.88;49.92;;;-3274.60;91.60;;;;;;5010544;28;20073;-79
2022/12/17 21:43:42;;;;;;;103.68;53.85;;;-3274.50;91.50;;;;;;5013139;28;20539;-80
2022/12/17 21:46:10;;;;;;;99.88;53.67;;;-3274.60;91.60;;;;;;5013165;28;20022;-79
2022/12/17 21:48:38;;;;;;;94.35;48.75;;;-3274.50;91.40;;;;;;5006775;28;20167;-79
2022/12/17 21:51:05;;;;;;;99.57;51.10;;;-3274.50;91.40;;;;;;5014922;28;20112;-80
2022/12/17 21:53:31;;;;;;;93.13;48.97;;;-3274.50;91.30;;;;;;5015584;28;20084;-78
2022/12/17 21:56:09;;;;;;;95.38;51.30;;;-3274.50;91.30;;;;;;5016909;28;20053;-79
2022/12/17 21:58:35;;;;;;;111.75;53.10;;;-3274.40;91.20;;;;;;5014873;28;20025;-79
2022/12/17 22:01:17;;;;;;;101.15;53.60;;;-3274.40;91.20;;;;;;5013821;28;20167;-79
2022/12/17 22:03:43;;;;;;;102.65;52.78;;;-3274.30;91.20;;;;;;5012713;28;20040;-79
2022/12/17 22:06:13;;;;;;;97.93;49.85;;;-3274.30;91.20;;;;;;5009274;28;20533;-80
2022/12/17 22:08:39;;;;;;;104.43;51.33;;;-3274.20;91.10;;;;;;5008173;28;20049;-80
2022/12/17 22:14:15;;;;;;;97.72;51.08;;;-3274.10;91.20;;;;;;5020051;28;20445;-79
2022/12/17 22:16:45;;;;;;;97.10;48.90;;;-3274.00;91.30;;;;;;5000065;28;20057;-78
2022/12/17 22:19:18;;;;;;;105.75;50.15;;;-3273.90;91.30;;;;;;4997835;28;20074;-79
2022/12/17 22:21:45;;;;;;;100.30;49.42;;;-3273.90;91.40;;;;;;4992049;28;20049;-78
2022/12/17 22:24:13;;;;;;;101.28;51.92;;;-3273.90;91.50;;;;;;5021294;28;20041;-79
2022/12/17 22:26:39;;;;;;;104.53;51.45;;;-3273.90;91.50;;;;;;4995115;28;20035;-78
2022/12/17 22:29:05;;;;;;;103.22;53.33;;;-3273.80;91.50;;;;;;4991375;28;20034;-79
2022/12/17 22:34:15;;;;;;;103.53;49.38;;;-3273.90;91.60;;;;;;4990372;28;20041;-78
2022/12/17 22:36:41;;;;;;;103.97;50.35;;;-3273.80;91.60;;;;;;4994260;28;20046;-80
2022/12/17 22:39:10;;;;;;;97.10;47.17;;;-3273.80;91.60;;;;;;5010206;28;20622;-78
2022/12/17 22:44:21;;;;;;;97.88;49.58;;;-3273.80;91.80;;;;;;4992883;28;20093;-78
2022/12/17 22:46:47;;;;;;;105.22;51.67;;;-3273.80;91.70;;;;;;4991273;28;20077;-78
2022/12/17 22:49:14;;;;;;;99.78;49.47;;;-3273.80;91.70;;;;;;5000416;28;20121;-78
2022/12/17 22:51:41;;;;;;;96.63;48.50;;;-3273.80;91.80;;;;;;4990868;28;20047;-81
2022/12/17 22:54:07;;;;;;;102.47;45.00;;;-3273.80;91.80;;;;;;4987310;28;20042;-77
2022/12/17 22:56:34;;;;;;;77.88;41.33;;;-3273.60;91.40;;;;;;4997060;28;20030;-79
2022/12/17 22:58:59;;;;;;;149.60;45.05;;;-3273.50;91.20;;;;;;4993762;28;20109;-80
2022/12/17 23:01:25;;;;;;;295.10;53.80;;;-3273.40;91.10;;;;;;4993792;28;20375;-79
2022/12/17 23:03:59;;;;;;;72.78;41.35;;;-3273.20;90.80;;;;;;4995410;28;20398;-79
2022/12/17 23:06:26;;;;;;;91.28;41.97;;;-3273.10;90.70;;;;;;4995333;28;20043;-79
2022/12/17 23:08:52;;;;;;;194.07;49.45;;;-3273.00;90.70;;;;;;4989464;28;20054;-79
2022/12/17 23:11:21;;;;;;;86.72;43.65;;;-3273.00;90.70;;;;;;4994467;28;20045;-79
2022/12/17 23:13:46;;;;;;;141.18;46.17;;;-3272.80;90.60;;;;;;4992919;28;20409;-78
2022/12/17 23:16:13;;;;;;;80.20;43.40;;;-3272.70;90.60;;;;;;4998590;28;20475;-78
2022/12/17 23:18:40;;;;;;;80.18;42.03;;;-3272.70;90.70;;;;;;4997437;28;20483;-79
2022/12/17 23:21:07;;;;;;;92.28;46.28;;;-3272.70;90.70;;;;;;4997348;28;20034;-78
2022/12/17 23:23:33;;;;;;;80.25;43.53;;;-3272.70;90.80;;;;;;4997119;28;20034;-78
2022/12/17 23:26:08;;;;;;;82.68;47.13;;;-3272.70;90.90;;;;;;4994420;28;20121;-80
2022/12/17 23:28:34;;;;;;;85.45;47.35;;;-3272.70;90.90;;;;;;5003233;28;20246;-79
2022/12/17 23:31:12;;;;;;;93.10;47.28;;;-3272.70;90.90;;;;;;5003593;28;20053;-79
2022/12/17 23:33:38;;;;;;;86.20;48.30;;;-3272.60;90.80;;;;;;5002669;28;20285;-79
2022/12/17 23:36:12;;;;;;;92.40;45.97;;;-3272.60;90.70;;;;;;5003862;28;20151;-78
2022/12/17 23:38:38;;;;;;;89.70;46.33;;;-3272.50;90.70;;;;;;5001986;28;20037;-79
2022/12/17 23:41:13;;;;;;;90.10;45.65;;;-3272.40;90.70;;;;;;4999597;28;20100;-80
2022/12/17 23:43:38;;;;;;;89.38;47.65;;;-3272.30;90.80;;;;;;4997127;28;20090;-79
2022/12/17 23:46:05;;;;;;;86.57;45.15;;;-3272.30;90.70;;;;;;5001752;28;20113;-79
2022/12/17 23:48:34;;;;;;;86.78;46.05;;;-3272.20;90.70;;;;;;5001063;28;20034;-79
2022/12/17 23:51:00;;;;;;;83.05;44.17;;;-3272.10;90.70;;;;;;4999249;28;20061;-79
2022/12/17 23:53:30;;;;;;;81.68;45.17;;;-3272.10;90.80;;;;;;5000632;28;21131;-79
2022/12/17 23:56:02;;;;;;;89.82;47.03;;;-3272.10;90.80;;;;;;4996012;28;20066;-79
2022/12/17 23:58:28;;;;;;;83.20;45.08;;;-3272.00;90.80;;;;;;4993371;28;20030;-79
